Ana Sayfa
METAR-TAF:

METAR-TAF

Havaalanları :

Tulça, Romanya

Enlem: 45-11N, Boylam: 028-49E, yükseklik: 4 m

Güncel hava durumu gözlemi

Rapor saat 18:00 UTC de 19 dakika önce yapıldı.
Rüzgar kuzeydan 4 kt
Sıcaklık 16°C
Nem 63%
Basınç 1023 hPa
Görüş mesafesi 10 km veya daha fazla

METAR: LRTC 161800Z AUTO 35004KT 9999 NCD 16/09 Q1023

Saat: 21:19 (18:19 UTC)

Tahmin

Rapor saat 14:00 UTC de 4 saat ve 19 dakika önce yapıldı.
Ayın 16'si saat 15 UTC'den ayın 16'si saat 24 UTC'ye kadar geçerli Tahmin
Rüzgar kuzeydoğudan 8 kt
Görüş mesafesi 10 km veya daha fazla
1500 m altında bulut yok ve kümülonimbus yok

TAF: LRTC 161400Z 1615/1624 04008KT CAVOK

4.000'den fazla havaalanı için hava durumu gözlemleri ve tahminleri (METAR ve TAF raporları).

Kullanılabilir istasyonlar harita üzerinde sarı ve kırmızı noktalarla gösterilir.

İstasyonun adını görmek için fareyi noktanın üzerinde gezdirin.

Sonrasında hava gözlem ve tahminlerini görmek için tıklayın.

Haritayı değiştirmek için: yaklaştırmak için siyah artı işaretli yeşil düğmeye ve uzaklaştırmak için de eksi işaretli düğmeye hızla tıklayın; bitişik haritalar için yeşil okları kullanın.


METAR-TAF: